Time;durP1;ratioP1;P1;durP2;ratioP2;P2;SDS_P1;SDS_P2;PMS_P1;PMS_P2;Temp;Humidity;BMP_temperature;BMP_pressure;BME280_temperature;BME280_humidity;BME280_pressure;Samples;Min_cycle;Max_cycle;Signal;HPM_P1;HPM_P2
2021/06/20 00:00:24;;;;;;;12.68;4.15;;;19.80;99.90;;;;;;5022895;28;20033;-57
2021/06/20 00:02:51;;;;;;;13.50;4.70;;;19.80;99.90;;;;;;5029402;28;20121;-57
2021/06/20 00:05:20;;;;;;;13.70;5.60;;;19.80;99.90;;;;;;5028617;28;20076;-59
2021/06/20 00:07:46;;;;;;;19.17;5.80;;;19.90;99.90;;;;;;5029299;28;20090;-60
2021/06/20 00:10:15;;;;;;;15.57;4.57;;;19.80;99.90;;;;;;5024272;28;20440;-61
2021/06/20 00:12:41;;;;;;;17.52;3.83;;;19.70;99.90;;;;;;5027323;28;20499;-60
2021/06/20 00:15:11;;;;;;;12.75;3.40;;;19.60;99.90;;;;;;5026929;28;20030;-60
2021/06/20 00:17:37;;;;;;;16.02;4.20;;;19.60;99.90;;;;;;5028945;28;20025;-58
2021/06/20 00:20:06;;;;;;;11.13;3.70;;;19.50;99.90;;;;;;5029187;28;20056;-56
2021/06/20 00:22:32;;;;;;;10.48;4.63;;;19.50;99.90;;;;;;5028870;28;20109;-57
2021/06/20 00:24:58;;;;;;;15.00;5.07;;;19.50;99.90;;;;;;5027296;28;20056;-57
2021/06/20 00:27:24;;;;;;;15.75;4.28;;;19.40;99.90;;;;;;5026494;28;20026;-59
2021/06/20 00:29:49;;;;;;;21.65;5.20;;;19.50;99.90;;;;;;5028693;28;20033;-59
2021/06/20 00:32:15;;;;;;;22.85;5.93;;;19.40;99.90;;;;;;5027985;28;20055;-54
2021/06/20 00:34:41;;;;;;;13.70;4.93;;;19.40;99.90;;;;;;5028157;28;20483;-61
2021/06/20 00:37:06;;;;;;;14.15;5.03;;;19.40;99.90;;;;;;5027607;28;20053;-55
2021/06/20 00:39:33;;;;;;;12.00;5.40;;;19.40;99.90;;;;;;5029071;28;20116;-58
2021/06/20 00:41:58;;;;;;;13.45;6.28;;;19.50;99.90;;;;;;5028487;28;20044;-57
2021/06/20 00:44:24;;;;;;;14.98;6.03;;;19.50;99.90;;;;;;5028964;28;20034;-58
2021/06/20 00:46:50;;;;;;;16.27;6.68;;;19.50;99.90;;;;;;5028112;28;20021;-59
2021/06/20 00:49:15;;;;;;;20.05;6.78;;;19.50;99.90;;;;;;5028625;28;20036;-61
2021/06/20 00:51:41;;;;;;;15.35;7.38;;;19.50;99.90;;;;;;5031842;28;20047;-58
2021/06/20 00:54:08;;;;;;;13.27;7.05;;;19.50;99.90;;;;;;5032443;28;20383;-58
2021/06/20 00:56:34;;;;;;;17.30;7.00;;;19.50;99.90;;;;;;5031649;28;20037;-57
2021/06/20 00:59:03;;;;;;;14.27;6.22;;;19.50;99.90;;;;;;5032277;28;20037;-57
2021/06/20 01:01:33;;;;;;;16.92;6.97;;;19.60;99.90;;;;;;5031045;28;20030;-61
2021/06/20 01:03:59;;;;;;;12.65;6.57;;;19.50;99.90;;;;;;5032597;28;20036;-60
2021/06/20 01:06:27;;;;;;;15.18;6.13;;;19.50;99.90;;;;;;5032524;28;20076;-61
2021/06/20 01:08:53;;;;;;;13.77;6.32;;;19.50;99.90;;;;;;5032496;28;20029;-55
2021/06/20 01:11:19;;;;;;;17.38;6.70;;;19.60;99.90;;;;;;5032845;28;20037;-57
2021/06/20 01:13:46;;;;;;;19.00;7.57;;;19.60;99.90;;;;;;5032339;28;20075;-58
2021/06/20 01:16:12;;;;;;;13.10;6.60;;;19.60;99.90;;;;;;5032229;28;20138;-57
2021/06/20 01:18:37;;;;;;;14.40;6.30;;;19.60;99.90;;;;;;5031623;28;20022;-58
2021/06/20 01:21:07;;;;;;;10.73;5.97;;;19.60;99.90;;;;;;5032268;28;20374;-59
2021/06/20 01:23:33;;;;;;;13.60;7.03;;;19.60;99.90;;;;;;5028261;28;20053;-56
2021/06/20 01:26:00;;;;;;;18.63;7.40;;;19.60;99.90;;;;;;5031657;28;20492;-58
2021/06/20 01:28:27;;;;;;;13.90;7.47;;;19.60;99.90;;;;;;5030404;28;20049;-60
2021/06/20 01:30:58;;;;;;;12.38;6.55;;;19.60;99.90;;;;;;5032617;28;20086;-60
2021/06/20 01:33:25;;;;;;;12.50;7.45;;;19.70;99.90;;;;;;5032813;28;20498;-58
2021/06/20 01:35:51;;;;;;;11.23;6.63;;;19.70;99.90;;;;;;5030830;28;20029;-60
2021/06/20 01:38:16;;;;;;;11.90;6.65;;;19.70;99.90;;;;;;5035829;28;20037;-60
2021/06/20 01:40:42;;;;;;;14.40;7.07;;;19.60;99.90;;;;;;5031920;28;20036;-58
2021/06/20 01:43:08;;;;;;;18.83;6.97;;;19.60;99.90;;;;;;5030778;28;20117;-55
2021/06/20 01:45:36;;;;;;;18.75;9.07;;;19.60;99.90;;;;;;5030599;28;20028;-58
2021/06/20 01:48:03;;;;;;;13.15;7.00;;;19.60;99.90;;;;;;5031252;28;20090;-59
2021/06/20 01:50:30;;;;;;;16.02;7.55;;;19.70;99.90;;;;;;5031339;28;20021;-58
2021/06/20 01:53:15;;;;;;;22.42;8.05;;;19.70;99.90;;;;;;5031765;28;20021;-61
2021/06/20 01:55:45;;;;;;;20.63;9.88;;;19.70;99.90;;;;;;5027533;28;20029;-58
2021/06/20 01:58:13;;;;;;;27.00;8.80;;;19.70;99.90;;;;;;5033015;28;20021;-61
2021/06/20 02:00:40;;;;;;;24.50;8.60;;;19.70;99.90;;;;;;5034437;28;20121;-58
2021/06/20 02:03:11;;;;;;;25.73;11.13;;;19.70;99.90;;;;;;5031486;28;20025;-58
2021/06/20 02:05:38;;;;;;;22.80;8.77;;;19.70;99.90;;;;;;5031830;28;20542;-59
2021/06/20 02:08:04;;;;;;;29.88;10.10;;;19.70;99.90;;;;;;5031483;28;20025;-59
2021/06/20 02:10:30;;;;;;;24.80;8.40;;;19.70;99.90;;;;;;5031682;28;20514;-61
2021/06/20 02:12:56;;;;;;;26.38;8.90;;;19.70;99.90;;;;;;5030667;28;20163;-60
2021/06/20 02:15:23;;;;;;;32.90;9.43;;;19.70;99.90;;;;;;5030496;28;20120;-57
2021/06/20 02:17:49;;;;;;;38.25;9.25;;;19.70;99.90;;;;;;5029910;28;20045;-59
2021/06/20 02:20:18;;;;;;;31.05;9.35;;;19.70;99.90;;;;;;5031230;28;20348;-58
2021/06/20 02:22:44;;;;;;;29.55;9.20;;;19.70;99.90;;;;;;5030646;28;20106;-60
2021/06/20 02:25:13;;;;;;;25.25;9.27;;;19.70;99.90;;;;;;5030761;28;20036;-62
2021/06/20 02:27:40;;;;;;;28.98;10.15;;;19.60;99.90;;;;;;5024454;28;20032;-58
2021/06/20 02:30:06;;;;;;;32.63;9.55;;;19.70;99.90;;;;;;5027362;28;20022;-60
2021/06/20 02:32:32;;;;;;;38.15;10.35;;;19.70;99.90;;;;;;5030647;28;20467;-57
2021/06/20 02:34:58;;;;;;;28.35;10.65;;;19.70;99.90;;;;;;5030602;28;20049;-58
2021/06/20 02:37:24;;;;;;;29.65;9.85;;;19.70;99.90;;;;;;5046945;22;20056;-57
2021/06/20 02:39:51;;;;;;;32.28;11.43;;;19.80;99.90;;;;;;5030918;28;20495;-57
2021/06/20 02:42:17;;;;;;;30.35;11.77;;;19.80;99.90;;;;;;5030979;28;20072;-57
2021/06/20 02:44:43;;;;;;;33.28;12.20;;;19.80;99.90;;;;;;5031394;28;20034;-59
2021/06/20 02:47:09;;;;;;;38.85;11.55;;;19.80;99.90;;;;;;5031126;28;20021;-59
2021/06/20 02:49:37;;;;;;;38.60;11.35;;;19.80;99.90;;;;;;5031154;28;20029;-61
2021/06/20 02:52:04;;;;;;;33.90;11.68;;;19.70;99.90;;;;;;5028721;28;20025;-59
2021/06/20 02:54:30;;;;;;;35.63;11.65;;;19.80;99.90;;;;;;5016080;28;20029;-62
2021/06/20 02:56:57;;;;;;;34.92;12.13;;;19.80;99.90;;;;;;5030184;28;20026;-62
2021/06/20 02:59:23;;;;;;;34.22;12.02;;;19.80;99.90;;;;;;5031089;28;20044;-60
2021/06/20 03:01:48;;;;;;;32.78;12.88;;;19.80;99.90;;;;;;5031256;28;20033;-62
2021/06/20 03:04:14;;;;;;;35.20;11.77;;;19.90;99.90;;;;;;5030830;28;20060;-61
2021/06/20 03:06:40;;;;;;;32.28;11.68;;;19.90;99.90;;;;;;5029722;28;20459;-59
2021/06/20 03:09:06;;;;;;;28.80;13.63;;;19.90;99.90;;;;;;5031060;28;20495;-61
2021/06/20 03:11:32;;;;;;;35.13;13.10;;;19.90;99.90;;;;;;5030872;28;20087;-59
2021/06/20 03:13:58;;;;;;;38.47;13.80;;;19.90;99.90;;;;;;5030824;28;20032;-59
2021/06/20 03:16:23;;;;;;;30.02;10.82;;;19.90;99.90;;;;;;5030273;28;20475;-61
2021/06/20 03:18:49;;;;;;;40.88;13.63;;;19.90;99.90;;;;;;5030924;28;20029;-61
2021/06/20 03:21:16;;;;;;;28.20;11.60;;;19.90;99.90;;;;;;5029861;28;20167;-59
2021/06/20 03:23:43;;;;;;;35.45;12.07;;;19.80;99.90;;;;;;5030243;28;20068;-58
2021/06/20 03:26:08;;;;;;;34.15;12.63;;;19.80;99.90;;;;;;5027700;28;20082;-58
2021/06/20 03:28:34;;;;;;;33.13;13.30;;;19.70;99.90;;;;;;5029759;28;20030;-57
2021/06/20 03:31:00;;;;;;;35.92;13.43;;;19.60;99.90;;;;;;5032396;28;20113;-60
2021/06/20 03:33:25;;;;;;;36.80;13.60;;;19.70;99.90;;;;;;5029935;28;20026;-60
2021/06/20 03:35:51;;;;;;;34.20;13.60;;;19.70;99.90;;;;;;5029830;28;20044;-58
2021/06/20 03:38:16;;;;;;;32.80;14.63;;;19.60;99.90;;;;;;5030159;28;20498;-59
2021/06/20 03:40:42;;;;;;;47.72;15.07;;;19.60;99.90;;;;;;5029981;28;20535;-62
2021/06/20 03:43:08;;;;;;;44.38;13.50;;;19.60;99.90;;;;;;5030384;28;20017;-58
2021/06/20 03:45:33;;;;;;;35.83;14.65;;;19.60;99.90;;;;;;5029662;28;20052;-57
2021/06/20 03:47:59;;;;;;;37.40;13.27;;;19.60;99.90;;;;;;5029075;28;20025;-63
2021/06/20 03:50:25;;;;;;;37.13;13.30;;;19.60;99.90;;;;;;5030378;28;20100;-59
2021/06/20 03:52:51;;;;;;;36.92;13.38;;;19.60;99.90;;;;;;5030382;28;20029;-58
2021/06/20 03:55:17;;;;;;;26.20;10.75;;;19.60;99.90;;;;;;5029434;28;20033;-60
2021/06/20 03:57:43;;;;;;;23.00;11.07;;;19.60;99.90;;;;;;5029338;28;20021;-59
2021/06/20 04:00:10;;;;;;;24.25;12.25;;;19.60;99.90;;;;;;5029933;28;20119;-59
2021/06/20 04:02:36;;;;;;;25.58;10.00;;;19.50;99.90;;;;;;5029245;28;20034;-58
2021/06/20 04:05:03;;;;;;;23.38;10.50;;;19.50;99.90;;;;;;5030774;28;20037;-58
2021/06/20 04:07:28;;;;;;;21.00;10.65;;;19.40;99.90;;;;;;5029163;28;20112;-58
2021/06/20 04:09:54;;;;;;;29.05;11.75;;;19.40;99.90;;;;;;5029244;28;20446;-59
2021/06/20 04:12:20;;;;;;;20.80;10.55;;;19.40;99.90;;;;;;5029644;28;20440;-60
2021/06/20 04:14:45;;;;;;;25.77;10.75;;;19.40;99.90;;;;;;5029427;28;20120;-58
2021/06/20 04:17:11;;;;;;;22.38;11.23;;;19.40;99.90;;;;;;5029473;28;20479;-59
2021/06/20 04:19:37;;;;;;;20.20;10.07;;;19.40;99.90;;;;;;5029824;28;20379;-61
2021/06/20 04:22:03;;;;;;;19.60;10.77;;;19.40;99.90;;;;;;5029429;28;20332;-58
2021/06/20 04:24:28;;;;;;;22.02;9.95;;;19.40;99.90;;;;;;5028447;28;20051;-59
2021/06/20 04:26:54;;;;;;;17.75;7.75;;;19.50;99.90;;;;;;5028808;28;20076;-59
2021/06/20 04:29:20;;;;;;;20.83;8.73;;;19.50;99.90;;;;;;5028866;28;20057;-58
2021/06/20 04:31:46;;;;;;;19.40;10.38;;;19.60;99.90;;;;;;5028714;28;20104;-58
2021/06/20 04:34:12;;;;;;;23.73;9.88;;;19.70;99.90;;;;;;5029618;28;20152;-59
2021/06/20 04:36:37;;;;;;;22.50;10.35;;;19.80;99.90;;;;;;5028889;28;20045;-58
2021/06/20 04:39:08;;;;;;;19.92;10.65;;;19.80;99.90;;;;;;5011681;28;20032;-59
2021/06/20 04:41:38;;;;;;;20.40;10.52;;;19.80;99.90;;;;;;5024080;28;20380;-60
2021/06/20 04:44:05;;;;;;;21.55;10.52;;;19.90;99.90;;;;;;5023655;28;20025;-59
2021/06/20 04:46:37;;;;;;;18.45;8.80;;;19.90;99.90;;;;;;5024486;28;20539;-57
2021/06/20 04:49:07;;;;;;;22.40;9.05;;;20.00;99.90;;;;;;5029019;28;20028;-59
2021/06/20 04:51:35;;;;;;;18.08;8.27;;;20.00;99.90;;;;;;5029011;28;20025;-59
2021/06/20 04:54:01;;;;;;;15.65;7.45;;;20.00;99.90;;;;;;5012534;28;20032;-58
2021/06/20 04:56:27;;;;;;;20.73;7.07;;;20.00;99.90;;;;;;5028895;28;20108;-59
2021/06/20 04:58:53;;;;;;;12.90;6.43;;;20.00;99.90;;;;;;5028965;28;20076;-59
2021/06/20 05:01:19;;;;;;;10.73;5.75;;;20.00;99.90;;;;;;5028298;28;20040;-61
2021/06/20 05:03:44;;;;;;;11.75;6.10;;;20.00;99.90;;;;;;5028242;28;20471;-58
2021/06/20 05:06:10;;;;;;;14.40;5.72;;;19.90;99.90;;;;;;5029067;28;20103;-57
2021/06/20 05:08:36;;;;;;;15.48;5.80;;;20.00;99.90;;;;;;5028941;28;20433;-60
2021/06/20 05:11:01;;;;;;;14.20;4.60;;;19.90;99.90;;;;;;5028969;28;20021;-56
2021/06/20 05:13:27;;;;;;;11.43;4.13;;;19.90;99.90;;;;;;5029528;28;20029;-59
2021/06/20 05:15:53;;;;;;;7.75;3.33;;;20.00;99.90;;;;;;5028515;28;20033;-59
2021/06/20 05:18:19;;;;;;;14.05;5.05;;;20.00;99.90;;;;;;5028876;28;20041;-58
2021/06/20 05:20:45;;;;;;;9.82;3.65;;;19.90;99.90;;;;;;5029207;28;20037;-58
2021/06/20 05:23:10;;;;;;;10.18;3.85;;;19.90;99.90;;;;;;5029259;28;20036;-59
2021/06/20 05:25:36;;;;;;;8.98;3.25;;;20.00;99.90;;;;;;5028541;28;20037;-61
2021/06/20 05:28:02;;;;;;;8.07;2.97;;;20.00;99.90;;;;;;5028530;28;20029;-59
2021/06/20 05:30:28;;;;;;;4.93;3.13;;;20.00;99.90;;;;;;5028858;28;20103;-59
2021/06/20 05:32:54;;;;;;;8.48;3.10;;;20.10;99.90;;;;;;5028282;28;20041;-60
2021/06/20 05:35:20;;;;;;;7.07;3.00;;;20.10;99.90;;;;;;5029862;28;20033;-56
2021/06/20 05:37:46;;;;;;;11.27;3.83;;;20.00;99.90;;;;;;5028249;28;20081;-59
2021/06/20 05:40:12;;;;;;;14.25;4.07;;;20.00;99.90;;;;;;5032211;28;20037;-59
2021/06/20 05:42:38;;;;;;;13.70;3.60;;;20.10;99.90;;;;;;5032572;28;20132;-56
2021/06/20 05:45:04;;;;;;;6.00;3.08;;;20.10;99.90;;;;;;5014578;28;20531;-57
2021/06/20 05:47:30;;;;;;;5.97;3.85;;;20.00;99.90;;;;;;5031836;28;20108;-57
2021/06/20 05:49:55;;;;;;;8.57;3.25;;;20.00;99.90;;;;;;5032805;28;20105;-56
2021/06/20 05:52:22;;;;;;;13.60;3.38;;;20.00;99.90;;;;;;5032053;28;20138;-56
2021/06/20 05:54:50;;;;;;;3.90;2.72;;;20.10;99.90;;;;;;5031684;28;20038;-61
2021/06/20 05:57:20;;;;;;;4.72;3.00;;;20.10;99.90;;;;;;5030669;28;20029;-59
2021/06/20 05:59:46;;;;;;;9.15;2.70;;;20.30;99.90;;;;;;5032193;28;20037;-55
2021/06/20 06:02:12;;;;;;;15.32;3.72;;;20.30;99.90;;;;;;5032609;28;20029;-58
2021/06/20 06:04:38;;;;;;;6.10;3.58;;;20.30;99.90;;;;;;5032114;28;20040;-59
2021/06/20 06:07:04;;;;;;;5.55;3.20;;;20.30;99.90;;;;;;5032496;28;20087;-57
2021/06/20 06:09:30;;;;;;;12.30;4.40;;;20.30;99.90;;;;;;5035524;28;20034;-60
2021/06/20 06:11:56;;;;;;;7.35;3.25;;;20.20;99.90;;;;;;5029458;28;20043;-58
2021/06/20 06:14:22;;;;;;;11.73;2.95;;;20.30;99.90;;;;;;5036432;28;20475;-61
2021/06/20 06:16:48;;;;;;;8.45;2.78;;;20.50;99.90;;;;;;5031752;28;20091;-59
2021/06/20 06:19:16;;;;;;;9.77;2.90;;;20.40;99.90;;;;;;5032102;28;20036;-57
2021/06/20 06:21:41;;;;;;;4.75;2.67;;;20.50;99.90;;;;;;5031703;28;20041;-61
2021/06/20 06:24:07;;;;;;;4.63;2.65;;;20.70;99.90;;;;;;5025770;28;20029;-56
2021/06/20 06:26:33;;;;;;;9.40;2.75;;;20.80;99.90;;;;;;5031605;28;20061;-62
2021/06/20 06:28:58;;;;;;;6.85;3.00;;;20.80;99.90;;;;;;5031581;28;20063;-59
2021/06/20 06:31:24;;;;;;;8.90;2.83;;;20.70;99.90;;;;;;5031272;28;20056;-58
2021/06/20 06:33:49;;;;;;;6.30;2.70;;;20.70;99.90;;;;;;5030492;28;20476;-58
2021/06/20 06:36:15;;;;;;;4.05;1.90;;;20.90;99.90;;;;;;5031184;28;20029;-61
2021/06/20 06:38:40;;;;;;;4.78;2.25;;;20.90;99.90;;;;;;5032164;28;20061;-59
2021/06/20 06:41:06;;;;;;;2.50;2.30;;;20.80;99.90;;;;;;5031727;28;20033;-59
2021/06/20 06:43:31;;;;;;;4.47;2.35;;;20.90;99.90;;;;;;5031716;28;20501;-58
2021/06/20 06:45:59;;;;;;;5.97;1.95;;;21.00;99.90;;;;;;5031081;28;20029;-61
2021/06/20 06:48:25;;;;;;;3.65;3.00;;;21.00;99.90;;;;;;5031203;28;20061;-62
2021/06/20 06:50:50;;;;;;;6.40;2.60;;;20.90;99.90;;;;;;5031424;28;20053;-59
2021/06/20 06:53:16;;;;;;;7.78;2.78;;;20.80;99.90;;;;;;5032440;28;20026;-59
2021/06/20 06:55:42;;;;;;;3.50;2.03;;;20.80;99.90;;;;;;5030229;28;20021;-61
2021/06/20 06:58:07;;;;;;;4.35;2.35;;;20.90;99.90;;;;;;5031571;28;20164;-59
2021/06/20 07:00:33;;;;;;;3.17;2.05;;;21.00;99.90;;;;;;5030244;28;20030;-59
2021/06/20 07:02:59;;;;;;;6.18;2.25;;;21.20;99.90;;;;;;5031489;28;20126;-60
2021/06/20 07:05:26;;;;;;;5.88;2.47;;;21.30;99.90;;;;;;5031312;28;20032;-62
2021/06/20 07:07:52;;;;;;;6.30;2.08;;;21.30;99.90;;;;;;5031371;28;20112;-60
2021/06/20 07:10:17;;;;;;;7.57;2.28;;;21.40;99.90;;;;;;5031337;28;20064;-59
2021/06/20 07:12:43;;;;;;;2.88;2.03;;;21.50;99.90;;;;;;5031420;28;20026;-59
2021/06/20 07:15:12;;;;;;;5.53;1.95;;;21.60;99.90;;;;;;5030640;28;20017;-63
2021/06/20 07:17:38;;;;;;;4.63;1.90;;;21.50;99.90;;;;;;5031035;28;20030;-59
2021/06/20 07:20:08;;;;;;;2.92;2.03;;;21.50;99.90;;;;;;5031303;28;20029;-57
2021/06/20 07:22:35;;;;;;;3.95;1.88;;;21.60;99.90;;;;;;5030907;28;20032;-59
2021/06/20 07:25:02;;;;;;;6.68;1.85;;;21.60;99.90;;;;;;5031101;28;20033;-57
2021/06/20 07:27:27;;;;;;;6.32;1.98;;;21.80;99.90;;;;;;5029985;28;20032;-57
2021/06/20 07:29:53;;;;;;;4.32;1.60;;;21.70;99.90;;;;;;5030649;28;20025;-57
2021/06/20 07:32:18;;;;;;;8.57;1.65;;;21.80;99.90;;;;;;5029123;28;20028;-59
2021/06/20 07:34:44;;;;;;;4.90;1.75;;;21.80;99.90;;;;;;5030447;28;20025;-61
2021/06/20 07:37:09;;;;;;;3.70;1.50;;;22.00;99.90;;;;;;5030288;28;20041;-58
2021/06/20 07:39:35;;;;;;;4.47;1.60;;;22.10;99.90;;;;;;5030422;28;20471;-56
2021/06/20 07:42:01;;;;;;;7.40;1.65;;;22.00;99.90;;;;;;5030787;28;20415;-56
2021/06/20 07:44:27;;;;;;;4.22;1.95;;;22.00;99.90;;;;;;5030049;28;20040;-59
2021/06/20 07:46:53;;;;;;;6.25;1.60;;;22.10;99.90;;;;;;5030577;28;20017;-59
2021/06/20 07:49:19;;;;;;;1.77;1.50;;;22.10;99.90;;;;;;5029765;28;20032;-59
2021/06/20 07:51:46;;;;;;;2.75;1.70;;;22.00;99.90;;;;;;5023755;28;20029;-61
2021/06/20 07:54:11;;;;;;;3.22;1.65;;;22.10;99.90;;;;;;5029697;28;20377;-61
2021/06/20 07:56:37;;;;;;;2.30;1.60;;;22.20;99.90;;;;;;5030015;28;20032;-60
2021/06/20 07:59:02;;;;;;;2.80;1.63;;;22.30;99.90;;;;;;5026005;28;20036;-58
2021/06/20 08:01:29;;;;;;;4.03;1.73;;;22.30;99.90;;;;;;5029976;28;20033;-58
2021/06/20 08:03:54;;;;;;;4.85;1.70;;;22.40;99.90;;;;;;5029587;28;20377;-59
2021/06/20 08:06:20;;;;;;;9.07;1.52;;;22.50;99.90;;;;;;5029788;28;20029;-60
2021/06/20 08:08:46;;;;;;;3.13;1.50;;;22.70;99.90;;;;;;5025173;28;20554;-63
2021/06/20 08:11:12;;;;;;;3.85;1.80;;;22.80;99.90;;;;;;5026626;28;20064;-60
2021/06/20 08:13:37;;;;;;;3.05;1.55;;;22.80;99.90;;;;;;5029567;28;20025;-58
2021/06/20 08:16:03;;;;;;;1.77;1.33;;;22.80;99.90;;;;;;5030298;28;20512;-58
2021/06/20 08:18:29;;;;;;;2.05;1.20;;;22.80;99.90;;;;;;5029802;28;20049;-61
2021/06/20 08:20:54;;;;;;;5.28;1.60;;;22.80;99.90;;;;;;5029371;28;20026;-61
2021/06/20 08:23:21;;;;;;;2.33;1.58;;;22.90;99.90;;;;;;5029196;28;20041;-60
2021/06/20 08:25:46;;;;;;;5.38;1.83;;;23.00;99.90;;;;;;5028992;28;20045;-62
2021/06/20 08:28:12;;;;;;;2.67;1.60;;;23.00;99.90;;;;;;5028598;28;20033;-59
2021/06/20 08:30:38;;;;;;;3.67;1.60;;;23.20;99.90;;;;;;5029219;28;20109;-60
2021/06/20 08:33:03;;;;;;;4.28;1.33;;;23.20;99.90;;;;;;5027424;28;20108;-59
2021/06/20 08:35:29;;;;;;;3.50;1.90;;;23.30;99.90;;;;;;5028869;28;20171;-61
2021/06/20 08:37:54;;;;;;;4.60;1.58;;;23.40;99.90;;;;;;5040182;23;20038;-60
2021/06/20 08:40:20;;;;;;;5.40;1.70;;;23.40;99.90;;;;;;5027504;28;20486;-62
2021/06/20 08:42:45;;;;;;;1.48;1.10;;;23.20;99.90;;;;;;5028027;28;20054;-60
2021/06/20 08:45:14;;;;;;;6.60;1.75;;;23.20;99.90;;;;;;5028460;28;20136;-58
2021/06/20 08:47:40;;;;;;;3.55;1.77;;;23.20;99.90;;;;;;5029103;28;20037;-59
2021/06/20 08:50:07;;;;;;;1.50;1.40;;;23.30;99.90;;;;;;5025290;28;20026;-58
2021/06/20 08:52:32;;;;;;;5.60;1.50;;;23.30;99.90;;;;;;5024302;28;20380;-58
2021/06/20 08:55:02;;;;;;;3.90;1.20;;;23.40;99.90;;;;;;5027047;28;20049;-59
2021/06/20 08:57:36;;;;;;;2.35;1.30;;;23.50;99.90;;;;;;5028039;28;20035;-62
2021/06/20 09:00:05;;;;;;;5.03;1.10;;;23.50;99.90;;;;;;5029529;28;20036;-59
2021/06/20 09:02:31;;;;;;;5.05;1.30;;;23.60;99.90;;;;;;5005608;28;20037;-58
2021/06/20 09:04:59;;;;;;;3.30;1.50;;;23.60;99.90;;;;;;5020402;28;20033;-60
2021/06/20 09:07:39;;;;;;;1.80;1.30;;;23.50;99.90;;;;;;5021473;28;20433;-59
2021/06/20 09:10:17;;;;;;;2.22;1.17;;;23.50;99.90;;;;;;5020287;28;20037;-62
2021/06/20 09:12:54;;;;;;;2.35;1.38;;;23.50;99.90;;;;;;5031511;28;20036;-61
2021/06/20 09:15:22;;;;;;;3.13;1.15;;;23.50;99.90;;;;;;5030060;28;20443;-56
2021/06/20 09:17:56;;;;;;;5.30;1.40;;;23.70;99.90;;;;;;5028841;28;20029;-61
2021/06/20 09:20:35;;;;;;;;;;;23.60;99.90;;;;;;5031898;28;20076;-60
2021/06/20 09:23:05;;;;;;;2.05;1.20;;;23.60;99.90;;;;;;5028172;28;19951;-62
2021/06/20 09:25:30;;;;;;;1.88;1.10;;;23.60;99.90;;;;;;5028007;28;20026;-61
2021/06/20 09:27:59;;;;;;;3.20;1.77;;;23.70;99.90;;;;;;5033288;28;20100;-60
2021/06/20 09:30:27;;;;;;;4.43;1.60;;;23.60;99.90;;;;;;5027314;28;20026;-60
2021/06/20 09:33:06;;;;;;;2.47;1.60;;;23.70;99.90;;;;;;5029364;28;20471;-59
2021/06/20 09:35:56;;;;;;;2.47;1.40;;;23.70;99.90;;;;;;5011100;28;20419;-57
2021/06/20 09:38:26;;;;;;;4.95;1.70;;;23.90;99.90;;;;;;5025600;28;20037;-60
2021/06/20 09:41:03;;;;;;;4.03;2.20;;;24.10;99.90;;;;;;5029359;28;20087;-59
2021/06/20 09:43:30;;;;;;;3.40;1.23;;;24.50;99.90;;;;;;5023037;28;20034;-57
2021/06/20 09:45:56;;;;;;;2.72;1.48;;;24.70;99.90;;;;;;5030283;28;20021;-57
2021/06/20 09:48:24;;;;;;;1.80;1.30;;;24.80;99.90;;;;;;5009165;28;20036;-58
2021/06/20 09:50:50;;;;;;;6.03;1.30;;;24.70;99.90;;;;;;5025258;28;20557;-58
2021/06/20 09:53:20;;;;;;;2.25;1.13;;;24.70;99.90;;;;;;5012111;28;20025;-58
2021/06/20 09:55:45;;;;;;;3.72;1.77;;;24.80;99.90;;;;;;5030905;28;20038;-59
2021/06/20 09:58:11;;;;;;;3.63;1.17;;;24.90;99.90;;;;;;5026932;28;20048;-58
2021/06/20 10:00:42;;;;;;;2.25;1.08;;;24.80;99.90;;;;;;5025650;28;20025;-60
2021/06/20 10:03:08;;;;;;;1.50;1.23;;;25.00;99.90;;;;;;5031366;28;20372;-60
2021/06/20 10:05:34;;;;;;;2.42;1.20;;;25.00;99.90;;;;;;5028613;28;20496;-59
2021/06/20 10:08:03;;;;;;;1.88;1.08;;;24.80;99.90;;;;;;5030654;28;20029;-60
2021/06/20 10:10:29;;;;;;;4.20;1.20;;;24.80;99.90;;;;;;5026571;28;20452;-58
2021/06/20 10:12:55;;;;;;;3.20;1.38;;;24.80;99.90;;;;;;5025839;28;20021;-59
2021/06/20 10:15:21;;;;;;;2.88;1.25;;;24.80;99.90;;;;;;5030382;28;20045;-54
2021/06/20 10:17:54;;;;;;;3.22;1.30;;;24.80;99.90;;;;;;5009129;28;20049;-57
2021/06/20 10:20:21;;;;;;;4.53;1.17;;;24.60;99.90;;;;;;5031013;28;20025;-58
2021/06/20 10:22:48;;;;;;;2.10;1.38;;;24.70;99.90;;;;;;5030952;28;20116;-59
2021/06/20 10:25:26;;;;;;;2.30;1.15;;;24.60;99.90;;;;;;5031240;28;20045;-61
2021/06/20 10:28:06;;;;;;;4.43;1.10;;;24.70;99.90;;;;;;5025558;28;20061;-57
2021/06/20 10:30:34;;;;;;;4.97;1.35;;;24.70;99.90;;;;;;5021244;28;20026;-57
2021/06/20 10:33:21;;;;;;;5.47;1.23;;;24.80;99.90;;;;;;5029199;28;20033;-58
2021/06/20 10:35:58;;;;;;;3.15;1.10;;;24.90;99.90;;;;;;5029845;28;20104;-60
2021/06/20 10:38:45;;;;;;;5.53;1.38;;;25.60;99.90;;;;;;5025273;28;20033;-59
2021/06/20 10:41:24;;;;;;;2.75;1.60;;;25.90;99.90;;;;;;5030630;28;20036;-61
2021/06/20 10:43:57;;;;;;;4.57;1.20;;;26.40;99.90;;;;;;5030166;28;20112;-60
2021/06/20 10:46:24;;;;;;;2.28;1.17;;;26.20;99.90;;;;;;5026854;28;20052;-62
2021/06/20 10:48:50;;;;;;;5.47;1.05;;;26.40;99.90;;;;;;5027273;28;20526;-62
2021/06/20 10:51:22;;;;;;;2.80;0.98;;;26.70;99.90;;;;;;5027307;28;20046;-60
2021/06/20 10:53:48;;;;;;;1.98;1.00;;;26.80;99.90;;;;;;5026596;28;20113;-60
2021/06/20 10:56:25;;;;;;;3.20;1.23;;;27.30;99.90;;;;;;5029560;28;22019;-61
2021/06/20 10:58:53;;;;;;;2.22;1.00;;;27.40;99.90;;;;;;5028290;28;20372;-61
2021/06/20 11:01:21;;;;;;;1.23;1.13;;;27.40;99.90;;;;;;5027452;28;20027;-62
2021/06/20 11:03:52;;;;;;;2.92;1.13;;;27.30;99.90;;;;;;5029605;28;20076;-59
2021/06/20 11:06:20;;;;;;;1.48;1.00;;;27.20;99.90;;;;;;5023209;28;20029;-60
2021/06/20 11:09:07;;;;;;;3.55;1.23;;;27.10;99.90;;;;;;5030066;28;20423;-59
2021/06/20 11:11:48;;;;;;;3.35;1.20;;;26.50;99.90;;;;;;5027851;28;20024;-65
2021/06/20 11:14:13;;;;;;;2.10;1.58;;;26.10;99.90;;;;;;5007513;28;20029;-60
2021/06/20 11:16:44;;;;;;;1.40;1.05;;;26.10;99.90;;;;;;5027401;28;20556;-62
2021/06/20 11:19:12;;;;;;;2.55;0.98;;;26.50;99.90;;;;;;5032051;28;20480;-63
2021/06/20 11:21:47;;;;;;;3.30;1.48;;;26.70;99.90;;;;;;5028757;28;20029;-62
2021/06/20 11:24:15;;;;;;;7.25;1.65;;;26.60;99.90;;;;;;5023909;28;20360;-63
2021/06/20 11:27:00;;;;;;;5.28;1.10;;;26.60;99.90;;;;;;5028863;28;20219;-59
2021/06/20 11:29:44;;;;;;;3.25;1.10;;;26.50;99.90;;;;;;5024956;28;20116;-55
2021/06/20 11:32:20;;;;;;;2.92;1.33;;;26.30;99.90;;;;;;5023534;28;20045;-62
2021/06/20 11:34:51;;;;;;;3.22;1.20;;;26.20;99.90;;;;;;5029176;28;20502;-65
2021/06/20 11:37:27;;;;;;;1.80;1.05;;;26.10;99.90;;;;;;5030231;28;20064;-64
2021/06/20 11:40:01;;;;;;;1.85;1.02;;;26.10;99.90;;;;;;5029432;28;20111;-60
2021/06/20 11:42:35;;;;;;;1.30;1.13;;;26.10;99.90;;;;;;5032267;28;20021;-60
2021/06/20 11:45:07;;;;;;;4.72;1.50;;;26.10;99.90;;;;;;5023771;28;20049;-61
2021/06/20 11:47:39;;;;;;;6.72;1.33;;;26.00;99.90;;;;;;5024111;28;20037;-60
2021/06/20 11:50:26;;;;;;;2.30;1.10;;;26.10;99.90;;;;;;5005808;28;20018;-64
2021/06/20 11:53:11;;;;;;;2.97;1.45;;;26.30;99.90;;;;;;5026544;28;20454;-62
2021/06/20 11:55:44;;;;;;;1.13;1.00;;;26.40;99.90;;;;;;5028530;28;20025;-61
2021/06/20 11:58:12;;;;;;;1.50;1.33;;;26.40;99.90;;;;;;5023068;28;20033;-61
2021/06/20 12:00:42;;;;;;;4.07;1.10;;;26.40;99.90;;;;;;5014865;28;20032;-61
2021/06/20 12:03:15;;;;;;;3.28;1.17;;;26.40;99.90;;;;;;5028959;28;20072;-62
2021/06/20 12:05:50;;;;;;;2.65;1.17;;;26.40;99.90;;;;;;5027523;28;20105;-61
2021/06/20 12:08:16;;;;;;;5.88;1.10;;;26.20;99.90;;;;;;5025189;28;20167;-61
2021/06/20 12:10:44;;;;;;;1.23;1.10;;;26.10;99.90;;;;;;5025401;28;20025;-61
2021/06/20 12:13:12;;;;;;;1.27;1.08;;;26.20;99.90;;;;;;5027872;28;20029;-56
2021/06/20 12:15:40;;;;;;;1.98;1.02;;;26.30;99.90;;;;;;5023574;28;20221;-59
2021/06/20 12:18:08;;;;;;;2.30;1.10;;;26.70;99.90;;;;;;5026465;28;20523;-61
2021/06/20 12:20:39;;;;;;;1.60;1.02;;;27.50;99.90;;;;;;5023395;28;20041;-59
2021/06/20 12:23:07;;;;;;;3.97;0.90;;;28.00;99.90;;;;;;5020934;28;20352;-57
2021/06/20 12:25:43;;;;;;;1.65;0.90;;;28.40;99.90;;;;;;5023002;28;20112;-57
2021/06/20 12:28:11;;;;;;;2.17;1.08;;;28.70;99.90;;;;;;5025283;28;20064;-57
2021/06/20 12:30:40;;;;;;;2.92;1.40;;;28.70;99.90;;;;;;5025882;28;20025;-57
2021/06/20 12:33:14;;;;;;;4.68;1.30;;;28.90;99.90;;;;;;5023847;28;20543;-61
2021/06/20 12:35:43;;;;;;;4.25;1.10;;;28.50;99.90;;;;;;5027523;28;20030;-60
2021/06/20 12:38:18;;;;;;;2.80;1.35;;;28.50;98.20;;;;;;5024095;28;20053;-58
2021/06/20 12:40:44;;;;;;;4.28;1.50;;;27.90;99.90;;;;;;5027434;28;20108;-61
2021/06/20 12:43:18;;;;;;;5.30;1.10;;;27.90;99.90;;;;;;5021745;28;20026;-61